Time;durP1;ratioP1;P1;durP2;ratioP2;P2;SDS_P1;SDS_P2;PMS_P1;PMS_P2;Temp;Humidity;BMP_temperature;BMP_pressure;BME280_temperature;BME280_humidity;BME280_pressure;Samples;Min_cycle;Max_cycle;Signal;HPM_P1;HPM_P2
2021/08/29 00:00:27;;;;;;;7.15;4.38;;;;;;;13.15;98.56;101776.91;4885452;29;20104;-84
2021/08/29 00:02:53;;;;;;;7.55;4.78;;;;;;;13.98;98.74;101924.19;4871116;29;20040;-84
2021/08/29 00:05:18;;;;;;;6.28;4.78;;;;;;;13.25;98.68;101820.69;4881868;29;20032;-84
2021/08/29 00:07:44;;;;;;;6.82;4.57;;;;;;;13.49;98.82;101843.81;4865354;29;20026;-84
2021/08/29 00:10:10;;;;;;;7.38;5.05;;;;;;;13.48;98.83;101842.13;4881702;29;20062;-85
2021/08/29 00:12:38;;;;;;;6.95;5.07;;;;;;;13.12;99.09;101794.31;4873232;29;20026;-84
2021/08/29 00:15:05;;;;;;;7.57;5.28;;;;;;;14.04;98.95;101930.69;4861489;29;20056;-85
2021/08/29 00:17:31;;;;;;;7.90;5.40;;;;;;;13.10;99.10;101785.56;4881567;29;20036;-83
2021/08/29 00:19:57;;;;;;;6.70;5.20;;;;;;;13.06;99.38;101757.25;4880580;29;20029;-84
2021/08/29 00:22:23;;;;;;;8.32;5.40;;;;;;;13.41;99.04;101822.31;4863747;29;20074;-83
2021/08/29 00:24:49;;;;;;;6.97;5.30;;;;;;;13.13;99.13;101771.66;4861694;29;20014;-83
2021/08/29 00:27:15;;;;;;;7.32;5.38;;;;;;;13.50;99.05;101831.13;4861481;29;20029;-84
2021/08/29 00:29:40;;;;;;;8.57;5.70;;;;;;;13.31;99.02;101813.66;4863146;29;20532;-84
2021/08/29 00:32:06;;;;;;;9.57;5.30;;;;;;;13.95;99.48;101897.50;4863888;29;20099;-84
2021/08/29 00:34:32;;;;;;;7.55;6.15;;;;;;;14.16;99.27;101952.63;4862101;29;20034;-84
2021/08/29 00:36:59;;;;;;;10.85;5.90;;;;;;;13.28;99.16;101784.34;4863429;29;20025;-84
2021/08/29 00:39:27;;;;;;;7.53;5.45;;;;;;;13.65;99.12;101839.19;4863157;29;20071;-84
2021/08/29 00:41:53;;;;;;;6.28;5.50;;;;;;;14.20;99.05;101940.38;4862348;29;20018;-83
2021/08/29 00:44:19;;;;;;;10.23;5.72;;;;;;;13.44;99.15;101804.84;4861730;29;20078;-83
2021/08/29 00:46:46;;;;;;;7.90;5.65;;;;;;;13.56;99.34;101831.19;4861339;29;20447;-84
2021/08/29 00:49:21;;;;;;;7.32;5.50;;;;;;;13.15;98.75;101766.94;4862691;29;20097;-84
2021/08/29 00:51:54;;;;;;;9.10;6.07;;;;;;;14.16;99.27;101922.88;4862364;29;20026;-83
2021/08/29 00:54:22;;;;;;;7.85;5.43;;;;;;;13.41;99.22;101800.69;4859169;29;20093;-84
2021/08/29 00:56:47;;;;;;;12.30;6.15;;;;;;;13.62;99.37;101838.53;4861421;29;20038;-83
2021/08/29 00:59:13;;;;;;;9.05;6.20;;;;;;;13.49;99.16;101808.66;4861271;29;20026;-84
2021/08/29 01:01:55;;;;;;;9.35;6.13;;;;;;;14.05;99.53;101919.66;4862069;29;20047;-83
2021/08/29 01:04:29;;;;;;;8.88;6.18;;;;;;;13.51;99.45;101828.22;4841627;29;20095;-84
2021/08/29 01:07:09;;;;;;;7.47;5.90;;;;;;;14.08;99.62;101913.84;4843810;29;20074;-84
2021/08/29 01:09:38;;;;;;;10.13;6.30;;;;;;;13.58;99.23;101817.47;4880384;29;20044;-84
2021/08/29 01:12:06;;;;;;;12.48;6.78;;;;;;;13.55;99.27;101826.81;4869618;29;20037;-84
2021/08/29 01:14:36;;;;;;;7.80;5.60;;;;;;;13.12;99.53;101761.06;4861281;29;20521;-84
2021/08/29 01:17:03;;;;;;;8.18;6.18;;;;;;;13.27;99.32;101772.66;4875280;29;20025;-83
2021/08/29 01:19:56;;;;;;;9.18;6.00;;;;;;;13.71;99.97;101843.78;4864160;29;20029;-84
2021/08/29 01:22:23;;;;;;;10.25;6.22;;;;;;;13.29;99.50;101781.44;4863821;29;20067;-84
2021/08/29 01:24:50;;;;;;;9.95;6.13;;;;;;;13.54;99.66;101833.25;4879031;29;20086;-83
2021/08/29 01:27:42;;;;;;;8.95;6.43;;;;;;;14.12;99.17;101919.72;4877737;29;20062;-84
2021/08/29 01:30:09;;;;;;;8.32;6.15;;;;;;;13.56;99.40;101833.88;4879329;29;20057;-84
2021/08/29 01:32:36;;;;;;;9.18;6.10;;;;;;;13.54;99.41;101818.88;4861671;29;20056;-83
2021/08/29 01:35:02;;;;;;;8.85;6.25;;;;;;;13.28;98.83;101785.16;4862749;29;20022;-83
2021/08/29 01:37:28;;;;;;;9.18;6.10;;;;;;;13.55;98.95;101831.38;4864056;29;20021;-83
2021/08/29 01:39:56;;;;;;;8.05;6.22;;;;;;;13.50;99.10;101823.84;4862437;29;20085;-84
2021/08/29 01:42:21;;;;;;;11.68;5.85;;;;;;;13.40;99.08;101812.50;4877242;29;20066;-83
2021/08/29 01:44:47;;;;;;;11.30;6.18;;;;;;;13.88;99.47;101879.53;4848974;29;20018;-84
2021/08/29 01:47:16;;;;;;;8.10;6.85;;;;;;;13.89;99.31;101876.63;4864209;29;20057;-83
2021/08/29 01:49:42;;;;;;;9.05;6.53;;;;;;;14.09;99.35;101915.53;4863346;29;20014;-84
2021/08/29 01:52:07;;;;;;;11.55;6.68;;;;;;;14.13;99.27;101920.53;4863404;29;20052;-84
2021/08/29 01:54:33;;;;;;;8.82;6.40;;;;;;;14.14;98.95;101912.25;4848278;29;20025;-82
2021/08/29 01:57:01;;;;;;;8.50;6.60;;;;;;;14.00;98.71;101889.63;4862611;29;20022;-84
2021/08/29 01:59:27;;;;;;;9.93;7.05;;;;;;;14.14;99.17;101912.25;4894038;29;20029;-84
2021/08/29 02:01:54;;;;;;;9.43;6.82;;;;;;;14.16;99.07;101914.75;4867249;29;20045;-83
2021/08/29 02:04:21;;;;;;;9.80;6.88;;;;;;;14.22;99.11;101914.78;4861924;29;20061;-85
2021/08/29 02:06:52;;;;;;;10.65;6.97;;;;;;;14.20;99.04;101918.72;4831846;29;20185;-83
2021/08/29 02:09:19;;;;;;;9.05;7.38;;;;;;;14.17;98.82;101906.44;4863468;29;20034;-84
2021/08/29 02:11:51;;;;;;;12.35;7.75;;;;;;;14.28;99.10;101918.59;4863855;29;20033;-84
2021/08/29 02:14:27;;;;;;;12.68;7.60;;;;;;;14.18;98.93;101902.69;4863580;29;20053;-84
2021/08/29 02:16:54;;;;;;;9.88;6.95;;;;;;;14.30;98.68;101905.69;4862937;29;20064;-83
2021/08/29 02:19:26;;;;;;;11.25;7.60;;;;;;;14.29;99.14;101910.25;4863939;29;20041;-84
2021/08/29 02:21:52;;;;;;;11.43;7.60;;;;;;;14.29;99.06;101898.59;4877518;29;20045;-83
2021/08/29 02:24:23;;;;;;;12.18;7.53;;;;;;;14.10;98.71;101870.34;4863162;29;20109;-84
2021/08/29 02:26:50;;;;;;;15.07;8.02;;;;;;;14.32;98.73;101917.16;4865818;29;20045;-83
2021/08/29 02:29:17;;;;;;;11.85;7.80;;;;;;;14.32;98.75;101903.63;4866331;29;20033;-84
2021/08/29 02:31:44;;;;;;;14.73;7.97;;;;;;;14.36;98.70;101902.19;4882432;29;20023;-83
2021/08/29 02:34:10;;;;;;;10.90;7.88;;;;;;;14.30;98.31;101894.84;4883610;29;20029;-84
2021/08/29 02:36:36;;;;;;;11.45;7.93;;;;;;;14.35;98.43;101903.25;4873742;29;20083;-83
2021/08/29 02:39:03;;;;;;;11.45;7.70;;;;;;;14.36;98.34;101896.78;4878745;29;20018;-83
2021/08/29 02:41:30;;;;;;;13.32;8.05;;;;;;;14.32;98.74;101903.63;4881418;29;20018;-84
2021/08/29 02:43:56;;;;;;;13.68;7.85;;;;;;;14.31;98.63;101900.09;4865645;29;20029;-83
2021/08/29 02:46:23;;;;;;;13.27;7.50;;;;;;;14.32;98.60;101899.03;4867943;29;20017;-83
2021/08/29 02:48:51;;;;;;;10.35;7.50;;;;;;;14.33;98.14;101898.00;4872353;29;20121;-83
2021/08/29 02:51:17;;;;;;;14.10;7.88;;;;;;;14.36;98.51;101901.34;4864229;29;20064;-84
2021/08/29 02:53:43;;;;;;;11.20;7.53;;;;;;;14.38;97.91;101902.00;4865606;29;20456;-83
2021/08/29 02:56:09;;;;;;;14.65;7.40;;;;;;;14.30;98.01;101893.00;4881769;29;20033;-84
2021/08/29 02:58:36;;;;;;;9.40;7.63;;;;;;;14.37;98.18;101900.31;4865334;29;20037;-84
2021/08/29 03:01:02;;;;;;;11.02;7.55;;;;;;;14.35;97.80;101892.41;4867499;29;20040;-84
2021/08/29 03:03:28;;;;;;;11.07;7.82;;;;;;;14.20;98.11;101873.53;4881901;29;20075;-84
2021/08/29 03:05:53;;;;;;;13.65;7.93;;;;;;;14.38;97.77;101897.44;4850709;29;20062;-83
2021/08/29 03:08:19;;;;;;;10.35;7.47;;;;;;;14.39;97.94;101907.22;4880781;29;20089;-84
2021/08/29 03:10:44;;;;;;;12.93;7.88;;;;;;;14.40;97.54;101897.22;4867619;29;20037;-84
2021/08/29 03:13:13;;;;;;;13.25;7.85;;;;;;;14.37;98.14;101906.59;4882264;29;20037;-83
2021/08/29 03:15:39;;;;;;;11.00;7.72;;;;;;;14.40;98.01;101900.75;4861036;29;20130;-83
2021/08/29 03:18:04;;;;;;;11.45;7.50;;;;;;;14.39;97.72;101904.50;4863331;29;20017;-84
2021/08/29 03:20:30;;;;;;;13.35;7.03;;;;;;;14.37;97.76;101897.59;4863222;29;20055;-84
2021/08/29 03:22:55;;;;;;;12.20;7.68;;;;;;;14.41;97.82;101894.31;4861726;29;20089;-82
2021/08/29 03:25:21;;;;;;;14.85;7.63;;;;;;;14.41;97.95;101902.44;4864396;29;20042;-83
2021/08/29 03:27:47;;;;;;;12.45;7.25;;;;;;;14.37;97.66;101886.78;4865845;29;20038;-84
2021/08/29 03:30:13;;;;;;;14.82;7.65;;;;;;;14.36;98.07;101894.06;4866190;29;20030;-83
2021/08/29 03:32:40;;;;;;;12.55;7.38;;;;;;;14.28;97.67;101883.41;4864880;29;20127;-83
2021/08/29 03:35:08;;;;;;;11.57;7.03;;;;;;;14.17;97.84;101873.97;4879936;29;20033;-83
2021/08/29 03:37:35;;;;;;;11.50;7.38;;;;;;;14.34;97.58;101902.41;4864679;29;20037;-84
2021/08/29 03:40:04;;;;;;;13.70;7.60;;;;;;;14.41;97.57;101904.31;4881285;29;20043;-82
2021/08/29 03:42:32;;;;;;;11.30;7.05;;;;;;;14.43;97.60;101911.19;4868458;29;20046;-83
2021/08/29 03:44:59;;;;;;;10.23;7.13;;;;;;;14.44;97.63;101907.47;4863238;29;20025;-84
2021/08/29 03:47:25;;;;;;;10.05;6.95;;;;;;;14.34;97.60;101879.91;4863515;29;20026;-84
2021/08/29 03:49:50;;;;;;;11.30;6.90;;;;;;;14.41;97.43;101907.03;4863855;29;20544;-83
2021/08/29 03:52:21;;;;;;;14.50;7.18;;;;;;;14.40;97.72;101914.28;4863815;29;20034;-84
2021/08/29 03:54:47;;;;;;;11.45;7.18;;;;;;;14.41;97.79;101913.28;4864288;29;20026;-82
2021/08/29 03:57:19;;;;;;;12.07;7.20;;;;;;;14.37;97.38;101914.72;4859423;29;20014;-83
2021/08/29 03:59:44;;;;;;;10.02;7.40;;;;;;;14.45;97.36;101928.09;4886300;29;20022;-84
2021/08/29 04:02:10;;;;;;;11.65;7.13;;;;;;;14.30;97.54;101894.84;4843605;29;20081;-84
2021/08/29 04:04:36;;;;;;;12.80;8.00;;;;;;;14.48;97.44;101927.69;4849229;29;20026;-83
2021/08/29 04:07:04;;;;;;;11.80;7.18;;;;;;;14.49;97.26;101928.53;4852621;29;20085;-84
2021/08/29 04:09:32;;;;;;;11.48;7.22;;;;;;;14.41;97.36;101926.81;4867195;29;20039;-83
2021/08/29 04:11:59;;;;;;;11.65;7.15;;;;;;;14.45;97.62;101933.50;4867084;29;20030;-84
2021/08/29 04:14:26;;;;;;;11.90;7.30;;;;;;;14.46;97.22;101932.47;4867759;29;20323;-81
2021/08/29 04:16:57;;;;;;;11.05;7.13;;;;;;;14.43;97.14;101932.03;4869646;29;20018;-85
2021/08/29 04:19:23;;;;;;;11.82;7.13;;;;;;;14.45;97.63;101930.81;4870245;29;20030;-84
2021/08/29 04:21:50;;;;;;;13.02;7.40;;;;;;;14.42;97.32;101917.66;4870223;29;20017;-84
2021/08/29 04:24:15;;;;;;;12.70;7.25;;;;;;;14.50;97.39;101924.78;4851194;29;20020;-83
2021/08/29 04:26:41;;;;;;;11.07;7.00;;;;;;;14.50;97.32;101927.50;4855461;29;20100;-83
2021/08/29 04:29:07;;;;;;;14.00;7.35;;;;;;;14.53;97.00;101924.41;4871402;29;20068;-84
2021/08/29 04:31:34;;;;;;;12.00;7.13;;;;;;;14.47;97.56;101930.59;4884559;29;20033;-82
2021/08/29 04:34:05;;;;;;;10.82;7.50;;;;;;;14.48;97.05;101924.16;4868724;29;20044;-83
2021/08/29 04:36:31;;;;;;;11.68;7.28;;;;;;;14.47;97.16;101923.31;4883708;29;20036;-84
2021/08/29 04:39:01;;;;;;;11.40;6.90;;;;;;;14.54;97.26;101935.06;4884780;29;20028;-84
2021/08/29 04:41:27;;;;;;;12.18;7.13;;;;;;;14.48;96.87;101932.28;4884668;29;20048;-83
2021/08/29 04:43:52;;;;;;;13.68;6.95;;;;;;;14.12;96.90;101876.41;4883083;29;20025;-84
2021/08/29 04:46:18;;;;;;;10.63;7.22;;;;;;;14.50;97.13;101941.94;4866793;29;20040;-84
2021/08/29 04:48:43;;;;;;;12.05;6.80;;;;;;;14.52;97.04;101945.25;4881161;29;20022;-83
2021/08/29 04:51:08;;;;;;;11.48;6.60;;;;;;;14.56;96.58;101949.22;4849774;29;20094;-82
2021/08/29 04:53:35;;;;;;;12.93;6.40;;;;;;;14.52;96.99;101958.81;4858100;29;20028;-83
2021/08/29 04:56:00;;;;;;;9.23;6.80;;;;;;;14.51;96.65;101959.84;4881630;29;20168;-83
2021/08/29 04:58:26;;;;;;;12.05;6.93;;;;;;;14.54;96.84;101973.00;4846881;29;20037;-83
2021/08/29 05:00:51;;;;;;;9.75;6.43;;;;;;;14.45;96.78;101947.06;4868243;29;20025;-83
2021/08/29 05:03:17;;;;;;;10.75;6.50;;;;;;;14.43;96.61;101938.28;4864415;29;20073;-83
2021/08/29 05:05:42;;;;;;;11.10;6.88;;;;;;;14.53;96.81;101959.63;4865772;29;20041;-84
2021/08/29 05:08:09;;;;;;;14.05;6.88;;;;;;;14.55;96.27;101955.69;4866903;29;20029;-84
2021/08/29 05:10:34;;;;;;;11.77;6.80;;;;;;;14.56;96.54;101959.25;4864703;29;20056;-83
2021/08/29 05:13:00;;;;;;;12.30;7.15;;;;;;;14.51;96.57;101951.72;4850066;29;20094;-83
2021/08/29 05:15:25;;;;;;;12.25;6.60;;;;;;;14.61;96.38;101966.78;4877871;29;20061;-83
2021/08/29 05:17:51;;;;;;;11.38;7.03;;;;;;;14.52;96.20;101947.97;4877402;29;20111;-83
2021/08/29 05:20:16;;;;;;;13.85;6.80;;;;;;;14.54;95.87;101950.50;4858035;29;20042;-84
2021/08/29 05:22:42;;;;;;;13.85;6.78;;;;;;;14.64;95.90;101967.22;4867345;29;20041;-84
2021/08/29 05:25:09;;;;;;;9.32;6.80;;;;;;;14.66;95.85;101961.59;4880973;29;20048;-83
2021/08/29 05:27:35;;;;;;;10.07;6.65;;;;;;;14.69;95.58;101963.91;4873810;29;20101;-82
2021/08/29 05:30:00;;;;;;;12.25;6.63;;;;;;;14.58;95.79;101951.75;4879749;29;20397;-84
2021/08/29 05:32:27;;;;;;;12.57;6.47;;;;;;;14.77;95.24;101966.50;4894197;29;20101;-84
2021/08/29 05:34:52;;;;;;;13.27;6.80;;;;;;;14.64;95.20;101944.72;4867246;29;20033;-84
2021/08/29 05:37:17;;;;;;;10.68;6.57;;;;;;;14.77;95.42;101966.50;4897859;29;20044;-84
2021/08/29 05:39:43;;;;;;;10.63;6.18;;;;;;;14.74;94.63;101939.78;4881923;29;20126;-83
2021/08/29 05:42:09;;;;;;;12.85;6.10;;;;;;;14.94;94.32;101973.25;4857627;29;20113;-84
2021/08/29 05:44:35;;;;;;;9.07;5.90;;;;;;;14.99;94.10;101970.78;4864222;29;20074;-83
2021/08/29 05:47:00;;;;;;;12.02;6.13;;;;;;;15.10;93.61;101969.41;4864876;29;20029;-84
2021/08/29 05:49:26;;;;;;;9.00;5.45;;;;;;;15.15;93.79;101966.06;4863860;29;20065;-83
2021/08/29 05:51:51;;;;;;;10.85;5.93;;;;;;;15.15;93.16;101961.47;4862697;29;20053;-84
2021/08/29 05:54:17;;;;;;;10.30;5.95;;;;;;;15.10;92.45;101934.16;4880694;29;20097;-83
2021/08/29 05:56:43;;;;;;;9.85;5.55;;;;;;;15.40;92.11;101960.97;4862757;29;20097;-83
2021/08/29 05:59:09;;;;;;;9.90;5.55;;;;;;;15.57;91.41;101972.31;4880274;29;20067;-84
2021/08/29 06:01:35;;;;;;;9.20;5.45;;;;;;;15.58;91.21;101968.53;4848601;29;20025;-84
2021/08/29 06:04:01;;;;;;;9.10;4.95;;;;;;;15.71;90.42;101963.19;4881276;29;20060;-84
2021/08/29 06:06:27;;;;;;;7.80;5.50;;;;;;;15.79;90.00;101956.72;4863862;29;20033;-85
2021/08/29 06:08:53;;;;;;;11.48;5.70;;;;;;;15.79;89.87;101962.97;4865447;29;20061;-83
2021/08/29 06:11:19;;;;;;;9.25;4.82;;;;;;;15.84;90.13;101970.53;4865990;29;20030;-84
2021/08/29 06:13:44;;;;;;;7.85;4.80;;;;;;;15.92;89.60;101971.16;4864534;29;20106;-83
2021/08/29 06:16:10;;;;;;;9.18;4.95;;;;;;;15.87;89.84;101962.81;4881445;29;20420;-84
2021/08/29 06:18:36;;;;;;;5.68;4.63;;;;;;;15.96;89.43;101969.72;4883666;29;20089;-84
2021/08/29 06:21:03;;;;;;;7.13;4.88;;;;;;;16.14;89.21;101971.81;4868875;29;20029;-83
2021/08/29 06:23:29;;;;;;;8.48;4.47;;;;;;;16.09;89.05;101973.47;4880587;29;20033;-84
2021/08/29 06:25:54;;;;;;;5.85;4.50;;;;;;;16.16;88.70;101977.88;4868926;29;20043;-84
2021/08/29 06:28:20;;;;;;;7.50;4.88;;;;;;;16.03;88.70;101968.91;4871515;29;20046;-84
2021/08/29 06:30:45;;;;;;;6.90;4.40;;;;;;;16.08;88.82;101983.50;4853742;29;20054;-83
2021/08/29 06:33:12;;;;;;;6.28;5.00;;;;;;;16.18;88.30;101972.22;4868274;29;20063;-83
2021/08/29 06:35:37;;;;;;;10.75;5.05;;;;;;;16.04;87.93;101935.25;4884848;29;20089;-83
2021/08/29 06:38:03;;;;;;;9.88;5.10;;;;;;;16.29;87.59;101971.63;4883230;29;20029;-84
2021/08/29 06:40:28;;;;;;;6.85;4.78;;;;;;;16.34;87.30;101946.53;4882897;29;20025;-84
2021/08/29 06:42:54;;;;;;;7.63;4.32;;;;;;;16.56;86.91;101963.47;4882876;29;20053;-84
2021/08/29 06:45:19;;;;;;;8.60;4.43;;;;;;;16.45;87.16;101957.59;4868247;29;20057;-83
2021/08/29 06:47:45;;;;;;;5.45;4.50;;;;;;;16.43;86.94;101957.00;4867835;29;20045;-84
2021/08/29 06:50:11;;;;;;;6.65;4.90;;;;;;;16.37;87.02;101941.53;4856076;29;20029;-84
2021/08/29 06:52:37;;;;;;;5.80;4.45;;;;;;;16.56;86.82;101960.75;4885245;29;20037;-84
2021/08/29 06:55:02;;;;;;;5.70;4.50;;;;;;;16.51;86.91;101957.81;4885268;29;20101;-83
2021/08/29 06:57:29;;;;;;;8.65;5.10;;;;;;;16.60;86.54;101951.13;4885291;29;20108;-83
2021/08/29 06:59:55;;;;;;;7.30;4.82;;;;;;;16.76;86.33;101953.44;4852445;29;20016;-83
2021/08/29 07:02:21;;;;;;;5.85;4.57;;;;;;;16.79;86.04;101944.03;4852680;29;20037;-84
2021/08/29 07:04:48;;;;;;;8.57;4.68;;;;;;;16.89;85.79;101952.56;4854611;29;20061;-82
2021/08/29 07:07:13;;;;;;;7.00;4.70;;;;;;;16.88;85.59;101934.56;4885930;29;20030;-84
2021/08/29 07:09:40;;;;;;;9.20;4.80;;;;;;;16.86;86.12;101961.97;4885402;29;20038;-83
2021/08/29 07:12:09;;;;;;;8.02;4.80;;;;;;;16.70;86.11;101946.09;4870474;29;20033;-83
2021/08/29 07:14:35;;;;;;;9.10;4.75;;;;;;;16.65;86.46;101956.75;4868785;29;20029;-83
2021/08/29 07:17:00;;;;;;;6.68;4.03;;;;;;;16.45;87.10;101937.75;4868037;29;20160;-84
2021/08/29 07:19:26;;;;;;;6.78;4.72;;;;;;;16.34;87.32;101950.09;4885197;29;20033;-83
2021/08/29 07:21:52;;;;;;;5.68;4.60;;;;;;;16.40;87.23;101951.16;4883828;29;20072;-84
2021/08/29 07:24:17;;;;;;;6.70;4.38;;;;;;;16.49;87.09;101949.03;4883602;29;20012;-84
2021/08/29 07:26:43;;;;;;;6.60;4.50;;;;;;;16.69;86.47;101944.44;4872539;29;20096;-83
2021/08/29 07:29:08;;;;;;;6.50;4.43;;;;;;;16.78;86.53;101948.59;4868126;29;20022;-83
2021/08/29 07:31:34;;;;;;;5.68;4.82;;;;;;;16.93;86.13;101956.53;4884840;29;20021;-83
2021/08/29 07:33:59;;;;;;;6.50;4.85;;;;;;;16.99;85.91;101949.41;4885182;29;20029;-83
2021/08/29 07:36:25;;;;;;;9.90;4.38;;;;;;;17.01;85.75;101966.31;4867814;29;20037;-84
2021/08/29 07:38:50;;;;;;;4.88;4.28;;;;;;;17.06;85.34;101955.66;4868860;29;20093;-84
2021/08/29 07:41:15;;;;;;;4.57;4.18;;;;;;;17.18;85.17;101959.38;4884767;29;20029;-84
2021/08/29 07:43:41;;;;;;;4.90;4.32;;;;;;;17.28;84.70;101975.22;4884139;29;20037;-84
2021/08/29 07:46:07;;;;;;;4.82;4.30;;;;;;;17.37;84.11;101972.06;4869031;29;20041;-84
2021/08/29 07:48:32;;;;;;;5.57;4.22;;;;;;;17.30;83.86;101962.25;4880683;29;20029;-83
2021/08/29 07:50:58;;;;;;;5.13;4.63;;;;;;;17.38;83.71;101954.69;4887671;29;20045;-84
2021/08/29 07:53:23;;;;;;;5.22;4.22;;;;;;;17.59;83.45;101974.47;4892929;29;20315;-84
2021/08/29 07:55:48;;;;;;;6.38;4.50;;;;;;;17.61;82.61;101978.66;4869143;29;20042;-84
2021/08/29 07:58:14;;;;;;;7.45;4.53;;;;;;;17.42;82.56;101946.94;4868960;29;20041;-84
2021/08/29 08:00:39;;;;;;;6.18;4.60;;;;;;;17.56;82.95;101974.91;4869106;29;20036;-84
2021/08/29 08:03:04;;;;;;;7.13;4.90;;;;;;;17.69;82.82;101966.69;4837929;29;20018;-84
2021/08/29 08:05:30;;;;;;;6.68;5.10;;;;;;;17.76;82.43;101962.06;4884653;29;20037;-84
2021/08/29 08:07:55;;;;;;;5.32;4.38;;;;;;;17.92;82.12;101968.03;4884177;29;20081;-84
2021/08/29 08:10:23;;;;;;;5.53;4.60;;;;;;;17.82;82.27;101953.03;4868473;29;20037;-84
2021/08/29 08:12:49;;;;;;;6.03;4.68;;;;;;;18.08;82.38;101967.50;4861742;29;20018;-84
2021/08/29 08:15:14;;;;;;;7.20;4.85;;;;;;;17.89;82.92;101960.31;4868881;29;20061;-84
2021/08/29 08:17:40;;;;;;;6.35;4.60;;;;;;;17.86;82.34;101980.63;4884807;29;20045;-84
2021/08/29 08:20:07;;;;;;;6.45;4.65;;;;;;;17.76;82.53;101977.53;4851902;29;20048;-84
2021/08/29 08:22:33;;;;;;;6.25;4.72;;;;;;;17.44;83.28;101977.47;4868729;29;20044;-83
2021/08/29 08:24:59;;;;;;;10.30;4.88;;;;;;;17.24;83.62;101947.63;4884150;29;20033;-84
2021/08/29 08:27:26;;;;;;;5.80;4.90;;;;;;;17.54;83.46;101990.63;4869039;29;20022;-84
2021/08/29 08:29:51;;;;;;;5.50;5.00;;;;;;;17.69;83.55;101977.56;4869044;29;20093;-83
2021/08/29 08:32:16;;;;;;;6.68;4.47;;;;;;;17.73;83.21;101975.25;4866208;29;20041;-84
2021/08/29 08:34:42;;;;;;;6.53;5.30;;;;;;;17.82;82.35;101953.03;4869536;29;20085;-85
2021/08/29 08:37:07;;;;;;;6.43;5.22;;;;;;;18.04;81.86;101969.81;4836903;29;20057;-83
2021/08/29 08:39:32;;;;;;;7.05;5.40;;;;;;;18.00;81.30;101974.03;4854232;29;20061;-84
2021/08/29 08:42:00;;;;;;;5.82;4.70;;;;;;;18.34;80.89;101971.91;4868858;29;20098;-83
2021/08/29 08:44:25;;;;;;;6.95;5.50;;;;;;;18.37;80.58;101974.19;4884982;29;20025;-84
2021/08/29 08:46:55;;;;;;;6.18;4.90;;;;;;;18.41;80.16;101953.63;4867860;29;20131;-83
2021/08/29 08:49:25;;;;;;;6.25;5.10;;;;;;;18.64;79.73;101966.63;4868857;29;20050;-83
2021/08/29 08:51:52;;;;;;;8.32;5.13;;;;;;;18.80;79.75;101978.03;4883990;29;20045;-84
2021/08/29 08:54:19;;;;;;;5.95;5.20;;;;;;;18.96;79.65;101972.81;4893308;29;20089;-84
2021/08/29 08:56:47;;;;;;;5.78;5.10;;;;;;;19.00;79.34;101948.63;4884713;29;20068;-84
2021/08/29 08:59:14;;;;;;;5.80;5.20;;;;;;;19.24;79.22;101963.28;4883223;29;20016;-84
2021/08/29 09:01:41;;;;;;;6.43;5.47;;;;;;;19.22;78.54;101966.22;4885257;29;20013;-84
2021/08/29 09:04:07;;;;;;;6.90;5.60;;;;;;;18.88;78.08;101947.75;4869219;29;20033;-85
2021/08/29 09:06:33;;;;;;;9.30;5.53;;;;;;;18.83;78.96;101972.13;4877017;29;20100;-83
2021/08/29 09:09:02;;;;;;;7.60;5.38;;;;;;;18.89;78.94;101965.75;4887335;29;20009;-85
2021/08/29 09:11:28;;;;;;;6.15;5.32;;;;;;;18.69;79.26;101982.28;4894801;29;20037;-83
2021/08/29 09:13:55;;;;;;;5.95;5.35;;;;;;;18.82;79.17;101975.91;4868287;29;20017;-83
2021/08/29 09:16:22;;;;;;;6.60;5.85;;;;;;;18.82;79.38;101984.94;4883153;29;20060;-83
2021/08/29 09:18:50;;;;;;;6.45;5.50;;;;;;;18.90;79.54;101970.97;4868277;29;20049;-82
2021/08/29 09:21:23;;;;;;;6.28;5.38;;;;;;;18.89;78.70;101977.50;4867559;29;20041;-84
2021/08/29 09:23:50;;;;;;;6.57;5.60;;;;;;;18.71;79.00;101970.13;4868497;29;20037;-84
2021/08/29 09:26:18;;;;;;;6.50;5.30;;;;;;;18.73;79.14;101976.19;4868230;29;20033;-85
2021/08/29 09:28:48;;;;;;;6.47;5.50;;;;;;;18.72;79.20;101966.34;4884429;29;20026;-83
2021/08/29 09:31:18;;;;;;;6.80;5.40;;;;;;;18.65;79.63;101964.72;4852316;29;20036;-85
2021/08/29 09:34:00;;;;;;;9.02;5.43;;;;;;;18.69;79.77;101955.03;4868319;29;20052;-83
2021/08/29 09:36:30;;;;;;;7.38;5.38;;;;;;;18.94;79.82;101974.09;4879880;29;20034;-83
2021/08/29 09:39:09;;;;;;;7.28;5.32;;;;;;;19.01;79.40;101981.16;4839600;29;20034;-83
2021/08/29 09:41:35;;;;;;;7.60;5.70;;;;;;;18.91;79.01;101974.56;4869027;29;20017;-85
2021/08/29 09:44:20;;;;;;;7.57;5.60;;;;;;;18.85;79.22;101970.84;4853060;29;20021;-83
2021/08/29 09:47:02;;;;;;;10.15;5.30;;;;;;;18.97;79.18;101970.91;4866736;29;20044;-83
2021/08/29 09:49:32;;;;;;;7.65;5.35;;;;;;;19.06;78.56;101971.44;4868005;29;20120;-83
2021/08/29 09:52:00;;;;;;;7.45;5.65;;;;;;;18.89;79.04;101973.94;4883834;29;20018;-85
2021/08/29 09:54:34;;;;;;;7.32;5.50;;;;;;;18.84;78.92;101968.31;4868242;29;20025;-83
2021/08/29 09:57:04;;;;;;;7.00;5.22;;;;;;;18.74;79.38;101980.59;4868091;29;20038;-84
2021/08/29 09:59:43;;;;;;;8.82;5.50;;;;;;;18.78;79.30;101981.81;4889096;29;20012;-84
2021/08/29 10:02:11;;;;;;;6.82;5.60;;;;;;;18.89;79.26;101980.22;4903189;29;20009;-83
2021/08/29 10:04:37;;;;;;;7.85;5.57;;;;;;;18.91;78.90;101977.28;4887300;29;20041;-84
2021/08/29 10:07:16;;;;;;;7.88;5.88;;;;;;;18.82;78.93;101986.81;4876807;29;20053;-83
2021/08/29 10:09:47;;;;;;;6.28;5.40;;;;;;;18.89;79.04;101979.41;5152883;24;20039;-83
2021/08/29 10:12:14;;;;;;;7.78;5.90;;;;;;;17.94;79.08;101819.69;4845568;29;20040;-85
2021/08/29 10:14:42;;;;;;;7.15;5.55;;;;;;;18.30;78.39;101848.91;4814493;29;20075;-85
2021/08/29 10:17:09;;;;;;;7.13;5.25;;;;;;;19.09;77.86;101941.00;4845990;29;20070;-85
2021/08/29 10:19:37;;;;;;;6.32;5.72;;;;;;;18.59;77.78;101845.69;4845805;29;20082;-85
2021/08/29 10:22:03;;;;;;;6.10;4.97;;;;;;;19.68;77.22;101947.59;4831161;29;20014;-86
2021/08/29 10:24:35;;;;;;;7.20;5.40;;;;;;;19.42;77.12;101891.44;4846352;29;20035;-84
2021/08/29 10:27:10;;;;;;;6.90;5.20;;;;;;;19.00;76.18;101774.06;4844506;29;20027;-85
2021/08/29 10:29:48;;;;;;;8.60;5.30;;;;;;;19.45;75.76;101853.59;4830182;29;20068;-84
2021/08/29 10:32:30;;;;;;;7.53;5.50;;;;;;;20.06;74.97;101946.38;4843701;29;20055;-85
2021/08/29 10:34:57;;;;;;;5.72;5.13;;;;;;;18.75;75.50;101788.66;4830284;29;20018;-85
2021/08/29 10:37:23;;;;;;;6.78;5.47;;;;;;;18.85;75.67;101823.56;4829843;29;20054;-85
2021/08/29 10:39:52;;;;;;;6.40;5.40;;;;;;;18.71;75.95;101776.53;4846012;29;20033;-85
2021/08/29 10:42:21;;;;;;;7.03;5.18;;;;;;;18.78;75.45;101792.84;4829841;29;20011;-84
2021/08/29 10:44:48;;;;;;;6.00;5.35;;;;;;;19.20;75.33;101828.34;4830348;29;20059;-84
2021/08/29 10:47:16;;;;;;;9.07;5.35;;;;;;;19.73;74.86;101906.75;4846002;29;20035;-84
2021/08/29 10:49:42;;;;;;;5.00;4.53;;;;;;;20.07;74.72;101957.09;4846354;29;20034;-85
2021/08/29 10:52:08;;;;;;;5.57;5.07;;;;;;;19.39;75.24;101889.16;4846698;29;20022;-85
2021/08/29 10:54:38;;;;;;;6.88;5.00;;;;;;;18.97;75.82;101839.97;4832170;29;20011;-85
2021/08/29 10:57:30;;;;;;;7.07;5.30;;;;;;;19.76;75.64;101960.91;4845899;29;20065;-85
2021/08/29 11:00:19;;;;;;;6.28;4.97;;;;;;;19.81;75.56;101960.22;4845511;29;20022;-84
2021/08/29 11:02:49;;;;;;;5.90;5.30;;;;;;;19.31;75.85;101903.97;4835104;29;20041;-83
2021/08/29 11:05:34;;;;;;;5.60;5.10;;;;;;;19.01;75.89;101816.66;4848905;29;20032;-83
2021/08/29 11:08:20;;;;;;;8.02;5.32;;;;;;;18.82;75.06;101799.50;4848790;29;20034;-84
2021/08/29 11:10:46;;;;;;;5.75;5.05;;;;;;;19.35;74.79;101864.25;4849052;29;20141;-85
2021/08/29 11:13:35;;;;;;;5.50;5.00;;;;;;;20.01;74.89;101962.66;4834064;29;20014;-85
2021/08/29 11:16:11;;;;;;;5.97;5.38;;;;;;;19.97;74.41;101948.66;4849651;29;20052;-85
2021/08/29 11:19:02;;;;;;;6.30;5.30;;;;;;;20.03;74.24;101949.59;4850358;29;20052;-84
2021/08/29 11:21:48;;;;;;;6.47;5.68;;;;;;;19.00;74.30;101788.53;4981877;24;20058;-82
2021/08/29 11:24:54;;;;;;;6.53;5.32;;;;;;;19.44;74.28;101864.75;4824495;29;20022;-84